Portada
METAR-TAF:

METAR-TAF

Aeropuertos :

Aeropuerto Internacional Mitiga

Trípoli, Libia

latitud: 32-54N, longitud: 13-17E, altitud: 11 m

METAR: falta

Hora: 07:39 (05:39 UTC)

Pronóstico

El informe se hizo hace 39 minutos, a las 05:00 UTC
Pronóstico válido del 02 a las 06 UTC al 03 a las 06 UTC
Viento 15 kt del este-noreste
Visibilidad: 8000 m
Escasas nubes a una altura de 2500 ft
Nubes dispersas a una altura de 8000 ft
Evolucionando progresivamente
del 03 a las 00 UTC al 03 a las 02 UTC
Viento 8 kt del este
Visibilidad: 8000 m

TAF: HLLM 020500Z 0206/0306 06015KT 8000 FEW025 SCT080 BECMG 0300/0302 09008KT 8000 NSC

Observaciones y pronósticos meteorológicos de más de 4000 aeropuertos (mensajes METAR y TAF).

Los puntos amarillos y rojos representan las estaciones disponibles.

Ponga el ratón en el punto deseado para ver el nombre de la estación.

Haga clic para ver las observaciones y los pronósticos meteorológicos.

Para cambiar el mapa : haga clic en los botones verdes con una cruz de color negro para hacer un zoom, en el botón verde con un guión para alejar o en las flechas verdes para mapas adyacentes.


METAR-TAF: